<?xml version="1.0" encoding="UTF-8" standalone="no" ?>
<gpx xmlns="http://www.topografix.com/GPX/1/1" creator="MapSource 6.11.6" version="1.1" xmlns:xsi="http://www.w3.org/2001/XMLSchema-instance" xsi:schemaLocation="http://www.topografix.com/GPX/1/1 http://www.topografix.com/GPX/1/1/gpx.xsd">

  <metadata>
    <link href="http://www.garmin.com">
      <text>Garmin International</text>
    </link>
    <time>2009-08-17T12:35:28Z</time>
    <bounds maxlat="35.226430" maxlon="24.835070" minlat="35.198780" minlon="24.771080"/>
  </metadata>

  <trk>
    <name>16_KE_Nida_TimiosStavros</name>
    <extensions>
      <gpxx:TrackExtension xmlns:gpxx="http://www.garmin.com/xmlschemas/GpxExtensions/v3" xmlns:xsi="http://www.w3.org/2001/XMLSchema-instance" xsi:schemaLocation="http://www.garmin.com/xmlschemas/GpxExtensions/v3 http://www.garmin.com/xmlschemas/GpxExtensions/v3/GpxExtensionsv3.xsd">
        <gpxx:DisplayColor>White</gpxx:DisplayColor>
      </gpxx:TrackExtension>
    </extensions>
    <trkseg>
      <trkpt lat="35.206560" lon="24.835070">
        <ele>1367.000000</ele>
        <time>2002-09-21T05:17:16Z</time>
      </trkpt>
      <trkpt lat="35.206700" lon="24.834550">
        <ele>1370.000000</ele>
        <time>2002-09-21T05:18:10Z</time>
      </trkpt>
      <trkpt lat="35.206220" lon="24.834490">
        <ele>1373.000000</ele>
        <time>2002-09-21T05:18:53Z</time>
      </trkpt>
      <trkpt lat="35.205770" lon="24.834530">
        <ele>1376.000000</ele>
        <time>2002-09-21T05:19:33Z</time>
      </trkpt>
      <trkpt lat="35.206030" lon="24.834390">
        <ele>1379.000000</ele>
        <time>2002-09-21T05:19:55Z</time>
      </trkpt>
      <trkpt lat="35.206240" lon="24.834270">
        <ele>1382.000000</ele>
        <time>2002-09-21T05:20:14Z</time>
      </trkpt>
      <trkpt lat="35.206590" lon="24.833910">
        <ele>1388.000000</ele>
        <time>2002-09-21T05:20:25Z</time>
      </trkpt>
      <trkpt lat="35.206630" lon="24.833640">
        <ele>1385.000000</ele>
        <time>2002-09-21T05:20:56Z</time>
      </trkpt>
      <trkpt lat="35.206360" lon="24.833690">
        <ele>1390.000000</ele>
        <time>2002-09-21T05:21:28Z</time>
      </trkpt>
      <trkpt lat="35.205910" lon="24.833870">
        <ele>1392.000000</ele>
        <time>2002-09-21T05:21:54Z</time>
      </trkpt>
      <trkpt lat="35.205570" lon="24.833640">
        <ele>1393.000000</ele>
        <time>2002-09-21T05:22:29Z</time>
      </trkpt>
      <trkpt lat="35.205350" lon="24.833480">
        <ele>1395.000000</ele>
        <time>2002-09-21T05:22:51Z</time>
      </trkpt>
      <trkpt lat="35.205160" lon="24.833190">
        <ele>1396.000000</ele>
        <time>2002-09-21T05:23:13Z</time>
      </trkpt>
      <trkpt lat="35.205100" lon="24.832860">
        <ele>1398.000000</ele>
        <time>2002-09-21T05:23:34Z</time>
      </trkpt>
      <trkpt lat="35.204890" lon="24.832590">
        <ele>1401.000000</ele>
        <time>2002-09-21T05:24:12Z</time>
      </trkpt>
      <trkpt lat="35.204630" lon="24.832640">
        <ele>1405.000000</ele>
        <time>2002-09-21T05:24:51Z</time>
      </trkpt>
      <trkpt lat="35.204880" lon="24.832390">
        <ele>1409.000000</ele>
        <time>2002-09-21T05:25:21Z</time>
      </trkpt>
      <trkpt lat="35.205110" lon="24.832420">
        <ele>1410.000000</ele>
        <time>2002-09-21T05:25:43Z</time>
      </trkpt>
      <trkpt lat="35.205360" lon="24.832580">
        <ele>1412.000000</ele>
        <time>2002-09-21T05:26:14Z</time>
      </trkpt>
      <trkpt lat="35.205530" lon="24.832380">
        <ele>1415.000000</ele>
        <time>2002-09-21T05:26:34Z</time>
      </trkpt>
      <trkpt lat="35.205600" lon="24.831970">
        <ele>1419.000000</ele>
        <time>2002-09-21T05:27:15Z</time>
      </trkpt>
      <trkpt lat="35.205360" lon="24.831820">
        <ele>1420.000000</ele>
        <time>2002-09-21T05:27:27Z</time>
      </trkpt>
      <trkpt lat="35.204920" lon="24.831850">
        <ele>1424.000000</ele>
        <time>2002-09-21T05:28:08Z</time>
      </trkpt>
      <trkpt lat="35.204510" lon="24.832080">
        <ele>1427.000000</ele>
        <time>2002-09-21T05:28:52Z</time>
      </trkpt>
      <trkpt lat="35.204150" lon="24.832220">
        <ele>1429.000000</ele>
        <time>2002-09-21T05:29:30Z</time>
      </trkpt>
      <trkpt lat="35.203860" lon="24.832160">
        <ele>1431.000000</ele>
        <time>2002-09-21T05:30:02Z</time>
      </trkpt>
      <trkpt lat="35.203570" lon="24.832040">
        <ele>1433.000000</ele>
        <time>2002-09-21T05:30:39Z</time>
      </trkpt>
      <trkpt lat="35.203340" lon="24.831910">
        <ele>1433.000000</ele>
        <time>2002-09-21T05:30:53Z</time>
      </trkpt>
      <trkpt lat="35.203090" lon="24.831820">
        <ele>1436.000000</ele>
        <time>2002-09-21T05:31:34Z</time>
      </trkpt>
      <trkpt lat="35.202850" lon="24.831780">
        <ele>1441.000000</ele>
        <time>2002-09-21T05:32:20Z</time>
      </trkpt>
      <trkpt lat="35.202630" lon="24.831680">
        <ele>1448.000000</ele>
        <time>2002-09-21T05:33:07Z</time>
      </trkpt>
      <trkpt lat="35.202300" lon="24.831670">
        <ele>1453.000000</ele>
        <time>2002-09-21T05:33:53Z</time>
      </trkpt>
      <trkpt lat="35.202070" lon="24.831590">
        <ele>1458.000000</ele>
        <time>2002-09-21T05:34:39Z</time>
      </trkpt>
      <trkpt lat="35.201770" lon="24.831520">
        <ele>1466.000000</ele>
        <time>2002-09-21T05:35:40Z</time>
      </trkpt>
      <trkpt lat="35.201500" lon="24.831550">
        <ele>1469.000000</ele>
        <time>2002-09-21T05:36:21Z</time>
      </trkpt>
      <trkpt lat="35.201270" lon="24.831470">
        <ele>1475.000000</ele>
        <time>2002-09-21T05:37:07Z</time>
      </trkpt>
      <trkpt lat="35.201030" lon="24.831400">
        <ele>1483.000000</ele>
        <time>2002-09-21T05:37:59Z</time>
      </trkpt>
      <trkpt lat="35.200820" lon="24.831350">
        <ele>1489.000000</ele>
        <time>2002-09-21T05:38:42Z</time>
      </trkpt>
      <trkpt lat="35.200730" lon="24.831130">
        <ele>1502.000000</ele>
        <time>2002-09-21T05:40:00Z</time>
      </trkpt>
      <trkpt lat="35.200600" lon="24.831030">
        <ele>1513.000000</ele>
        <time>2002-09-21T05:41:48Z</time>
      </trkpt>
      <trkpt lat="35.200330" lon="24.830930">
        <ele>1524.000000</ele>
        <time>2002-09-21T05:43:03Z</time>
      </trkpt>
      <trkpt lat="35.200100" lon="24.830730">
        <ele>1537.000000</ele>
        <time>2002-09-21T05:44:01Z</time>
      </trkpt>
      <trkpt lat="35.199900" lon="24.830530">
        <ele>1545.000000</ele>
        <time>2002-09-21T05:44:58Z</time>
      </trkpt>
      <trkpt lat="35.199770" lon="24.830320">
        <ele>1553.000000</ele>
        <time>2002-09-21T05:45:50Z</time>
      </trkpt>
      <trkpt lat="35.199600" lon="24.830120">
        <ele>1558.000000</ele>
        <time>2002-09-21T05:46:34Z</time>
      </trkpt>
      <trkpt lat="35.199440" lon="24.829960">
        <ele>1567.000000</ele>
        <time>2002-09-21T05:48:04Z</time>
      </trkpt>
      <trkpt lat="35.199230" lon="24.829810">
        <ele>1574.000000</ele>
        <time>2002-09-21T05:49:13Z</time>
      </trkpt>
      <trkpt lat="35.198980" lon="24.829680">
        <ele>1582.000000</ele>
        <time>2002-09-21T05:50:17Z</time>
      </trkpt>
      <trkpt lat="35.198780" lon="24.829470">
        <ele>1588.000000</ele>
        <time>2002-09-21T05:51:23Z</time>
      </trkpt>
      <trkpt lat="35.198820" lon="24.829130">
        <ele>1597.000000</ele>
        <time>2002-09-21T05:52:37Z</time>
      </trkpt>
      <trkpt lat="35.198850" lon="24.828820">
        <ele>1603.000000</ele>
        <time>2002-09-21T05:53:46Z</time>
      </trkpt>
      <trkpt lat="35.198930" lon="24.828520">
        <ele>1613.000000</ele>
        <time>2002-09-21T05:54:55Z</time>
      </trkpt>
      <trkpt lat="35.199000" lon="24.828180">
        <ele>1619.000000</ele>
        <time>2002-09-21T05:55:49Z</time>
      </trkpt>
      <trkpt lat="35.199230" lon="24.828150">
        <ele>1630.000000</ele>
        <time>2002-09-21T05:56:54Z</time>
      </trkpt>
      <trkpt lat="35.199350" lon="24.827880">
        <ele>1635.000000</ele>
        <time>2002-09-21T05:57:34Z</time>
      </trkpt>
      <trkpt lat="35.199420" lon="24.827580">
        <ele>1636.000000</ele>
        <time>2002-09-21T05:58:09Z</time>
      </trkpt>
      <trkpt lat="35.199630" lon="24.827330">
        <ele>1643.000000</ele>
        <time>2002-09-21T05:59:21Z</time>
      </trkpt>
      <trkpt lat="35.199830" lon="24.827200">
        <ele>1645.000000</ele>
        <time>2002-09-21T06:00:05Z</time>
      </trkpt>
      <trkpt lat="35.200020" lon="24.826970">
        <ele>1652.000000</ele>
        <time>2002-09-21T06:00:52Z</time>
      </trkpt>
      <trkpt lat="35.200130" lon="24.826730">
        <ele>1658.000000</ele>
        <time>2002-09-21T06:01:37Z</time>
      </trkpt>
      <trkpt lat="35.200270" lon="24.826450">
        <ele>1664.000000</ele>
        <time>2002-09-21T06:02:34Z</time>
      </trkpt>
      <trkpt lat="35.200350" lon="24.826150">
        <ele>1672.000000</ele>
        <time>2002-09-21T06:03:31Z</time>
      </trkpt>
      <trkpt lat="35.200480" lon="24.825900">
        <ele>1682.000000</ele>
        <time>2002-09-21T06:04:30Z</time>
      </trkpt>
      <trkpt lat="35.200670" lon="24.825750">
        <ele>1685.000000</ele>
        <time>2002-09-21T06:05:13Z</time>
      </trkpt>
      <trkpt lat="35.200830" lon="24.825570">
        <ele>1692.000000</ele>
        <time>2002-09-21T06:05:57Z</time>
      </trkpt>
      <trkpt lat="35.201050" lon="24.825370">
        <ele>1696.000000</ele>
        <time>2002-09-21T06:07:50Z</time>
      </trkpt>
      <trkpt lat="35.201250" lon="24.825150">
        <ele>1700.000000</ele>
        <time>2002-09-21T06:08:34Z</time>
      </trkpt>
      <trkpt lat="35.201410" lon="24.824930">
        <ele>1705.000000</ele>
        <time>2002-09-21T06:09:19Z</time>
      </trkpt>
      <trkpt lat="35.201620" lon="24.824780">
        <ele>1709.000000</ele>
        <time>2002-09-21T06:09:51Z</time>
      </trkpt>
      <trkpt lat="35.201780" lon="24.824530">
        <ele>1716.000000</ele>
        <time>2002-09-21T06:10:39Z</time>
      </trkpt>
      <trkpt lat="35.201830" lon="24.824250">
        <ele>1723.000000</ele>
        <time>2002-09-21T06:11:24Z</time>
      </trkpt>
      <trkpt lat="35.201950" lon="24.824000">
        <ele>1726.000000</ele>
        <time>2002-09-21T06:12:07Z</time>
      </trkpt>
      <trkpt lat="35.202020" lon="24.823650">
        <ele>1733.000000</ele>
        <time>2002-09-21T06:13:05Z</time>
      </trkpt>
      <trkpt lat="35.202020" lon="24.823380">
        <ele>1740.000000</ele>
        <time>2002-09-21T06:13:50Z</time>
      </trkpt>
      <trkpt lat="35.201970" lon="24.823020">
        <ele>1745.000000</ele>
        <time>2002-09-21T06:14:48Z</time>
      </trkpt>
      <trkpt lat="35.202030" lon="24.822750">
        <ele>1753.000000</ele>
        <time>2002-09-21T06:15:42Z</time>
      </trkpt>
      <trkpt lat="35.202000" lon="24.822480">
        <ele>1764.000000</ele>
        <time>2002-09-21T06:16:37Z</time>
      </trkpt>
      <trkpt lat="35.202080" lon="24.822180">
        <ele>1768.000000</ele>
        <time>2002-09-21T06:17:42Z</time>
      </trkpt>
      <trkpt lat="35.202180" lon="24.821870">
        <ele>1771.000000</ele>
        <time>2002-09-21T06:18:26Z</time>
      </trkpt>
      <trkpt lat="35.202200" lon="24.821600">
        <ele>1777.000000</ele>
        <time>2002-09-21T06:19:09Z</time>
      </trkpt>
      <trkpt lat="35.202170" lon="24.821320">
        <ele>1782.000000</ele>
        <time>2002-09-21T06:19:54Z</time>
      </trkpt>
      <trkpt lat="35.202230" lon="24.821000">
        <ele>1791.000000</ele>
        <time>2002-09-21T06:20:59Z</time>
      </trkpt>
      <trkpt lat="35.202330" lon="24.820700">
        <ele>1798.000000</ele>
        <time>2002-09-21T06:22:04Z</time>
      </trkpt>
      <trkpt lat="35.202380" lon="24.820420">
        <ele>1808.000000</ele>
        <time>2002-09-21T06:23:11Z</time>
      </trkpt>
      <trkpt lat="35.202500" lon="24.820170">
        <ele>1815.000000</ele>
        <time>2002-09-21T06:24:26Z</time>
      </trkpt>
      <trkpt lat="35.202520" lon="24.819870">
        <ele>1819.000000</ele>
        <time>2002-09-21T06:25:09Z</time>
      </trkpt>
      <trkpt lat="35.202530" lon="24.819570">
        <ele>1827.000000</ele>
        <time>2002-09-21T06:25:53Z</time>
      </trkpt>
      <trkpt lat="35.202670" lon="24.819350">
        <ele>1830.000000</ele>
        <time>2002-09-21T06:26:35Z</time>
      </trkpt>
      <trkpt lat="35.202800" lon="24.819050">
        <ele>1835.000000</ele>
        <time>2002-09-21T06:27:21Z</time>
      </trkpt>
      <trkpt lat="35.202780" lon="24.818650">
        <ele>1843.000000</ele>
        <time>2002-09-21T06:28:18Z</time>
      </trkpt>
      <trkpt lat="35.202750" lon="24.818280">
        <ele>1850.000000</ele>
        <time>2002-09-21T06:29:13Z</time>
      </trkpt>
      <trkpt lat="35.202850" lon="24.817980">
        <ele>1852.000000</ele>
        <time>2002-09-21T06:29:45Z</time>
      </trkpt>
      <trkpt lat="35.202920" lon="24.817670">
        <ele>1855.000000</ele>
        <time>2002-09-21T06:30:19Z</time>
      </trkpt>
      <trkpt lat="35.203100" lon="24.817450">
        <ele>1856.000000</ele>
        <time>2002-09-21T06:30:51Z</time>
      </trkpt>
      <trkpt lat="35.203270" lon="24.817280">
        <ele>1861.000000</ele>
        <time>2002-09-21T06:31:30Z</time>
      </trkpt>
      <trkpt lat="35.203420" lon="24.816980">
        <ele>1863.000000</ele>
        <time>2002-09-21T06:32:12Z</time>
      </trkpt>
      <trkpt lat="35.203650" lon="24.816720">
        <ele>1866.000000</ele>
        <time>2002-09-21T06:32:51Z</time>
      </trkpt>
      <trkpt lat="35.203830" lon="24.816450">
        <ele>1871.000000</ele>
        <time>2002-09-21T06:33:35Z</time>
      </trkpt>
      <trkpt lat="35.204030" lon="24.816230">
        <ele>1880.000000</ele>
        <time>2002-09-21T06:34:33Z</time>
      </trkpt>
      <trkpt lat="35.204120" lon="24.815980">
        <ele>1885.000000</ele>
        <time>2002-09-21T06:35:12Z</time>
      </trkpt>
      <trkpt lat="35.204200" lon="24.815720">
        <ele>1887.000000</ele>
        <time>2002-09-21T06:35:44Z</time>
      </trkpt>
      <trkpt lat="35.204180" lon="24.815420">
        <ele>1889.000000</ele>
        <time>2002-09-21T06:36:16Z</time>
      </trkpt>
      <trkpt lat="35.204270" lon="24.815100">
        <ele>1896.000000</ele>
        <time>2002-09-21T06:37:11Z</time>
      </trkpt>
      <trkpt lat="35.204500" lon="24.814930">
        <ele>1904.000000</ele>
        <time>2002-09-21T06:38:03Z</time>
      </trkpt>
      <trkpt lat="35.204530" lon="24.814650">
        <ele>1916.000000</ele>
        <time>2002-09-21T06:39:18Z</time>
      </trkpt>
      <trkpt lat="35.204350" lon="24.814400">
        <ele>1917.000000</ele>
        <time>2002-09-21T06:40:40Z</time>
      </trkpt>
      <trkpt lat="35.204120" lon="24.814300">
        <ele>1916.000000</ele>
        <time>2002-09-21T06:41:09Z</time>
      </trkpt>
      <trkpt lat="35.203880" lon="24.814280">
        <ele>1916.000000</ele>
        <time>2002-09-21T06:41:31Z</time>
      </trkpt>
      <trkpt lat="35.203670" lon="24.814170">
        <ele>1913.000000</ele>
        <time>2002-09-21T06:41:57Z</time>
      </trkpt>
      <trkpt lat="35.203370" lon="24.813980">
        <ele>1908.000000</ele>
        <time>2002-09-21T06:42:47Z</time>
      </trkpt>
      <trkpt lat="35.203120" lon="24.813900">
        <ele>1904.000000</ele>
        <time>2002-09-21T06:43:15Z</time>
      </trkpt>
      <trkpt lat="35.202880" lon="24.813820">
        <ele>1900.000000</ele>
        <time>2002-09-21T06:43:42Z</time>
      </trkpt>
      <trkpt lat="35.202600" lon="24.813730">
        <ele>1898.000000</ele>
        <time>2002-09-21T06:44:12Z</time>
      </trkpt>
      <trkpt lat="35.202380" lon="24.813480">
        <ele>1892.000000</ele>
        <time>2002-09-21T06:44:50Z</time>
      </trkpt>
      <trkpt lat="35.202270" lon="24.813220">
        <ele>1885.000000</ele>
        <time>2002-09-21T06:45:22Z</time>
      </trkpt>
      <trkpt lat="35.202200" lon="24.812980">
        <ele>1880.000000</ele>
        <time>2002-09-21T06:45:50Z</time>
      </trkpt>
      <trkpt lat="35.202030" lon="24.812780">
        <ele>1875.000000</ele>
        <time>2002-09-21T06:46:14Z</time>
      </trkpt>
      <trkpt lat="35.201920" lon="24.812500">
        <ele>1868.000000</ele>
        <time>2002-09-21T06:46:45Z</time>
      </trkpt>
      <trkpt lat="35.201700" lon="24.812250">
        <ele>1865.000000</ele>
        <time>2002-09-21T06:47:17Z</time>
      </trkpt>
      <trkpt lat="35.201630" lon="24.811930">
        <ele>1858.000000</ele>
        <time>2002-09-21T06:47:51Z</time>
      </trkpt>
      <trkpt lat="35.201660" lon="24.811550">
        <ele>1848.000000</ele>
        <time>2002-09-21T06:48:30Z</time>
      </trkpt>
      <trkpt lat="35.201670" lon="24.811220">
        <ele>1840.000000</ele>
        <time>2002-09-21T06:49:01Z</time>
      </trkpt>
      <trkpt lat="35.201620" lon="24.810980">
        <ele>1836.000000</ele>
        <time>2002-09-21T06:49:30Z</time>
      </trkpt>
      <trkpt lat="35.201550" lon="24.810700">
        <ele>1830.000000</ele>
        <time>2002-09-21T06:49:56Z</time>
      </trkpt>
      <trkpt lat="35.201470" lon="24.810300">
        <ele>1825.000000</ele>
        <time>2002-09-21T06:50:31Z</time>
      </trkpt>
      <trkpt lat="35.201480" lon="24.810030">
        <ele>1825.000000</ele>
        <time>2002-09-21T06:51:24Z</time>
      </trkpt>
      <trkpt lat="35.201650" lon="24.809820">
        <ele>1824.000000</ele>
        <time>2002-09-21T06:51:50Z</time>
      </trkpt>
      <trkpt lat="35.201800" lon="24.809530">
        <ele>1827.000000</ele>
        <time>2002-09-21T06:52:24Z</time>
      </trkpt>
      <trkpt lat="35.201980" lon="24.809220">
        <ele>1830.000000</ele>
        <time>2002-09-21T06:53:00Z</time>
      </trkpt>
      <trkpt lat="35.202150" lon="24.809000">
        <ele>1831.000000</ele>
        <time>2002-09-21T06:53:34Z</time>
      </trkpt>
      <trkpt lat="35.202380" lon="24.808730">
        <ele>1834.000000</ele>
        <time>2002-09-21T06:54:13Z</time>
      </trkpt>
      <trkpt lat="35.202480" lon="24.808470">
        <ele>1836.000000</ele>
        <time>2002-09-21T06:54:44Z</time>
      </trkpt>
      <trkpt lat="35.202530" lon="24.808100">
        <ele>1837.000000</ele>
        <time>2002-09-21T06:55:22Z</time>
      </trkpt>
      <trkpt lat="35.202630" lon="24.807830">
        <ele>1842.000000</ele>
        <time>2002-09-21T06:56:00Z</time>
      </trkpt>
      <trkpt lat="35.202780" lon="24.807580">
        <ele>1844.000000</ele>
        <time>2002-09-21T06:56:31Z</time>
      </trkpt>
      <trkpt lat="35.203000" lon="24.807250">
        <ele>1846.000000</ele>
        <time>2002-09-21T06:57:16Z</time>
      </trkpt>
      <trkpt lat="35.203120" lon="24.806920">
        <ele>1847.000000</ele>
        <time>2002-09-21T06:57:59Z</time>
      </trkpt>
      <trkpt lat="35.203150" lon="24.806620">
        <ele>1850.000000</ele>
        <time>2002-09-21T06:58:30Z</time>
      </trkpt>
      <trkpt lat="35.203310" lon="24.806330">
        <ele>1855.000000</ele>
        <time>2002-09-21T06:59:14Z</time>
      </trkpt>
      <trkpt lat="35.203500" lon="24.806130">
        <ele>1858.000000</ele>
        <time>2002-09-21T06:59:45Z</time>
      </trkpt>
      <trkpt lat="35.203620" lon="24.805870">
        <ele>1859.000000</ele>
        <time>2002-09-21T07:00:17Z</time>
      </trkpt>
      <trkpt lat="35.203650" lon="24.805550">
        <ele>1860.000000</ele>
        <time>2002-09-21T07:00:50Z</time>
      </trkpt>
      <trkpt lat="35.203680" lon="24.805250">
        <ele>1868.000000</ele>
        <time>2002-09-21T07:01:59Z</time>
      </trkpt>
      <trkpt lat="35.203900" lon="24.805030">
        <ele>1873.000000</ele>
        <time>2002-09-21T07:03:04Z</time>
      </trkpt>
      <trkpt lat="35.203980" lon="24.804770">
        <ele>1874.000000</ele>
        <time>2002-09-21T07:03:36Z</time>
      </trkpt>
      <trkpt lat="35.204130" lon="24.804500">
        <ele>1874.000000</ele>
        <time>2002-09-21T07:04:07Z</time>
      </trkpt>
      <trkpt lat="35.204230" lon="24.804110">
        <ele>1879.000000</ele>
        <time>2002-09-21T07:04:56Z</time>
      </trkpt>
      <trkpt lat="35.204300" lon="24.803780">
        <ele>1881.000000</ele>
        <time>2002-09-21T07:05:33Z</time>
      </trkpt>
      <trkpt lat="35.204350" lon="24.803500">
        <ele>1884.000000</ele>
        <time>2002-09-21T07:06:01Z</time>
      </trkpt>
      <trkpt lat="35.204380" lon="24.803200">
        <ele>1889.000000</ele>
        <time>2002-09-21T07:06:47Z</time>
      </trkpt>
      <trkpt lat="35.204330" lon="24.802930">
        <ele>1894.000000</ele>
        <time>2002-09-21T07:07:54Z</time>
      </trkpt>
      <trkpt lat="35.204420" lon="24.802620">
        <ele>1899.000000</ele>
        <time>2002-09-21T07:08:38Z</time>
      </trkpt>
      <trkpt lat="35.204510" lon="24.802350">
        <ele>1906.000000</ele>
        <time>2002-09-21T07:09:32Z</time>
      </trkpt>
      <trkpt lat="35.204720" lon="24.802170">
        <ele>1910.000000</ele>
        <time>2002-09-21T07:10:13Z</time>
      </trkpt>
      <trkpt lat="35.204910" lon="24.801900">
        <ele>1915.000000</ele>
        <time>2002-09-21T07:10:58Z</time>
      </trkpt>
      <trkpt lat="35.205120" lon="24.801700">
        <ele>1920.000000</ele>
        <time>2002-09-21T07:11:42Z</time>
      </trkpt>
      <trkpt lat="35.205380" lon="24.801480">
        <ele>1925.000000</ele>
        <time>2002-09-21T07:12:25Z</time>
      </trkpt>
      <trkpt lat="35.205650" lon="24.801320">
        <ele>1927.000000</ele>
        <time>2002-09-21T07:13:05Z</time>
      </trkpt>
      <trkpt lat="35.205800" lon="24.801080">
        <ele>1929.000000</ele>
        <time>2002-09-21T07:13:35Z</time>
      </trkpt>
      <trkpt lat="35.206030" lon="24.800800">
        <ele>1933.000000</ele>
        <time>2002-09-21T07:14:16Z</time>
      </trkpt>
      <trkpt lat="35.206320" lon="24.800730">
        <ele>1937.000000</ele>
        <time>2002-09-21T07:14:59Z</time>
      </trkpt>
      <trkpt lat="35.206600" lon="24.800570">
        <ele>1942.000000</ele>
        <time>2002-09-21T07:15:44Z</time>
      </trkpt>
      <trkpt lat="35.206810" lon="24.800330">
        <ele>1948.000000</ele>
        <time>2002-09-21T07:16:31Z</time>
      </trkpt>
      <trkpt lat="35.207000" lon="24.800130">
        <ele>1953.000000</ele>
        <time>2002-09-21T07:17:14Z</time>
      </trkpt>
      <trkpt lat="35.207250" lon="24.799850">
        <ele>1959.000000</ele>
        <time>2002-09-21T07:18:13Z</time>
      </trkpt>
      <trkpt lat="35.207450" lon="24.799630">
        <ele>1963.000000</ele>
        <time>2002-09-21T07:18:55Z</time>
      </trkpt>
      <trkpt lat="35.207620" lon="24.799370">
        <ele>1967.000000</ele>
        <time>2002-09-21T07:19:54Z</time>
      </trkpt>
      <trkpt lat="35.207780" lon="24.799170">
        <ele>1973.000000</ele>
        <time>2002-09-21T07:20:36Z</time>
      </trkpt>
      <trkpt lat="35.208000" lon="24.799020">
        <ele>1977.000000</ele>
        <time>2002-09-21T07:21:28Z</time>
      </trkpt>
      <trkpt lat="35.208170" lon="24.798870">
        <ele>1984.000000</ele>
        <time>2002-09-21T07:22:27Z</time>
      </trkpt>
      <trkpt lat="35.208370" lon="24.798770">
        <ele>1991.000000</ele>
        <time>2002-09-21T07:23:10Z</time>
      </trkpt>
      <trkpt lat="35.208620" lon="24.798530">
        <ele>1998.000000</ele>
        <time>2002-09-21T07:24:25Z</time>
      </trkpt>
      <trkpt lat="35.208830" lon="24.798430">
        <ele>2002.000000</ele>
        <time>2002-09-21T07:24:57Z</time>
      </trkpt>
      <trkpt lat="35.209130" lon="24.798330">
        <ele>2006.000000</ele>
        <time>2002-09-21T07:26:36Z</time>
      </trkpt>
      <trkpt lat="35.209400" lon="24.798220">
        <ele>2008.000000</ele>
        <time>2002-09-21T07:27:12Z</time>
      </trkpt>
      <trkpt lat="35.209670" lon="24.798170">
        <ele>2010.000000</ele>
        <time>2002-09-21T07:27:48Z</time>
      </trkpt>
      <trkpt lat="35.210000" lon="24.798180">
        <ele>2014.000000</ele>
        <time>2002-09-21T07:28:36Z</time>
      </trkpt>
      <trkpt lat="35.210220" lon="24.798100">
        <ele>2018.000000</ele>
        <time>2002-09-21T07:29:07Z</time>
      </trkpt>
      <trkpt lat="35.210430" lon="24.797980">
        <ele>2021.000000</ele>
        <time>2002-09-21T07:29:40Z</time>
      </trkpt>
      <trkpt lat="35.210700" lon="24.797830">
        <ele>2027.000000</ele>
        <time>2002-09-21T07:30:27Z</time>
      </trkpt>
      <trkpt lat="35.210980" lon="24.797730">
        <ele>2032.000000</ele>
        <time>2002-09-21T07:31:16Z</time>
      </trkpt>
      <trkpt lat="35.211270" lon="24.797620">
        <ele>2038.000000</ele>
        <time>2002-09-21T07:32:03Z</time>
      </trkpt>
      <trkpt lat="35.211530" lon="24.797450">
        <ele>2043.000000</ele>
        <time>2002-09-21T07:32:49Z</time>
      </trkpt>
      <trkpt lat="35.211800" lon="24.797300">
        <ele>2050.000000</ele>
        <time>2002-09-21T07:33:36Z</time>
      </trkpt>
      <trkpt lat="35.212020" lon="24.797120">
        <ele>2056.000000</ele>
        <time>2002-09-21T07:34:23Z</time>
      </trkpt>
      <trkpt lat="35.212300" lon="24.797050">
        <ele>2061.000000</ele>
        <time>2002-09-21T07:35:24Z</time>
      </trkpt>
      <trkpt lat="35.212580" lon="24.796980">
        <ele>2066.000000</ele>
        <time>2002-09-21T07:36:08Z</time>
      </trkpt>
      <trkpt lat="35.212880" lon="24.796870">
        <ele>2072.000000</ele>
        <time>2002-09-21T07:37:00Z</time>
      </trkpt>
      <trkpt lat="35.213150" lon="24.796830">
        <ele>2077.000000</ele>
        <time>2002-09-21T07:37:45Z</time>
      </trkpt>
      <trkpt lat="35.213270" lon="24.796570">
        <ele>2085.000000</ele>
        <time>2002-09-21T07:38:40Z</time>
      </trkpt>
      <trkpt lat="35.213530" lon="24.796430">
        <ele>2091.000000</ele>
        <time>2002-09-21T07:39:34Z</time>
      </trkpt>
      <trkpt lat="35.213750" lon="24.796300">
        <ele>2097.000000</ele>
        <time>2002-09-21T07:40:21Z</time>
      </trkpt>
      <trkpt lat="35.213980" lon="24.796230">
        <ele>2102.000000</ele>
        <time>2002-09-21T07:41:05Z</time>
      </trkpt>
      <trkpt lat="35.214220" lon="24.796100">
        <ele>2107.000000</ele>
        <time>2002-09-21T07:41:51Z</time>
      </trkpt>
      <trkpt lat="35.214480" lon="24.796050">
        <ele>2114.000000</ele>
        <time>2002-09-21T07:42:45Z</time>
      </trkpt>
      <trkpt lat="35.214700" lon="24.795900">
        <ele>2118.000000</ele>
        <time>2002-09-21T07:43:25Z</time>
      </trkpt>
      <trkpt lat="35.214900" lon="24.795780">
        <ele>2123.000000</ele>
        <time>2002-09-21T07:44:07Z</time>
      </trkpt>
      <trkpt lat="35.215070" lon="24.795580">
        <ele>2128.000000</ele>
        <time>2002-09-21T07:45:27Z</time>
      </trkpt>
      <trkpt lat="35.215270" lon="24.795330">
        <ele>2137.000000</ele>
        <time>2002-09-21T07:50:54Z</time>
      </trkpt>
      <trkpt lat="35.215480" lon="24.795080">
        <ele>2141.000000</ele>
        <time>2002-09-21T07:51:40Z</time>
      </trkpt>
      <trkpt lat="35.215650" lon="24.794870">
        <ele>2146.000000</ele>
        <time>2002-09-21T07:52:25Z</time>
      </trkpt>
      <trkpt lat="35.215920" lon="24.794720">
        <ele>2152.000000</ele>
        <time>2002-09-21T07:53:10Z</time>
      </trkpt>
      <trkpt lat="35.216120" lon="24.794570">
        <ele>2153.000000</ele>
        <time>2002-09-21T07:53:41Z</time>
      </trkpt>
      <trkpt lat="35.216330" lon="24.794470">
        <ele>2154.000000</ele>
        <time>2002-09-21T07:54:04Z</time>
      </trkpt>
      <trkpt lat="35.216700" lon="24.794470">
        <ele>2156.000000</ele>
        <time>2002-09-21T07:54:42Z</time>
      </trkpt>
      <trkpt lat="35.217050" lon="24.794450">
        <ele>2158.000000</ele>
        <time>2002-09-21T07:55:15Z</time>
      </trkpt>
      <trkpt lat="35.217250" lon="24.794520">
        <ele>2168.000000</ele>
        <time>2002-09-21T07:56:10Z</time>
      </trkpt>
      <trkpt lat="35.217480" lon="24.794580">
        <ele>2174.000000</ele>
        <time>2002-09-21T07:56:52Z</time>
      </trkpt>
      <trkpt lat="35.217700" lon="24.794800">
        <ele>2180.000000</ele>
        <time>2002-09-21T07:57:31Z</time>
      </trkpt>
      <trkpt lat="35.217900" lon="24.795030">
        <ele>2184.000000</ele>
        <time>2002-09-21T07:58:05Z</time>
      </trkpt>
      <trkpt lat="35.218130" lon="24.795080">
        <ele>2182.000000</ele>
        <time>2002-09-21T07:58:30Z</time>
      </trkpt>
      <trkpt lat="35.218470" lon="24.795040">
        <ele>2177.000000</ele>
        <time>2002-09-21T07:59:05Z</time>
      </trkpt>
      <trkpt lat="35.218830" lon="24.795080">
        <ele>2176.000000</ele>
        <time>2002-09-21T07:59:44Z</time>
      </trkpt>
      <trkpt lat="35.219020" lon="24.794880">
        <ele>2183.000000</ele>
        <time>2002-09-21T08:00:26Z</time>
      </trkpt>
      <trkpt lat="35.219260" lon="24.794650">
        <ele>2195.000000</ele>
        <time>2002-09-21T08:01:24Z</time>
      </trkpt>
      <trkpt lat="35.219480" lon="24.794470">
        <ele>2191.000000</ele>
        <time>2002-09-21T08:01:52Z</time>
      </trkpt>
      <trkpt lat="35.219660" lon="24.794180">
        <ele>2186.000000</ele>
        <time>2002-09-21T08:02:20Z</time>
      </trkpt>
      <trkpt lat="35.219920" lon="24.793880">
        <ele>2184.000000</ele>
        <time>2002-09-21T08:02:50Z</time>
      </trkpt>
      <trkpt lat="35.220200" lon="24.793530">
        <ele>2185.000000</ele>
        <time>2002-09-21T08:03:26Z</time>
      </trkpt>
      <trkpt lat="35.220430" lon="24.793220">
        <ele>2187.000000</ele>
        <time>2002-09-21T08:04:15Z</time>
      </trkpt>
      <trkpt lat="35.220620" lon="24.793020">
        <ele>2188.000000</ele>
        <time>2002-09-21T08:04:38Z</time>
      </trkpt>
      <trkpt lat="35.221020" lon="24.792880">
        <ele>2189.000000</ele>
        <time>2002-09-21T08:05:18Z</time>
      </trkpt>
      <trkpt lat="35.221380" lon="24.792630">
        <ele>2188.000000</ele>
        <time>2002-09-21T08:05:54Z</time>
      </trkpt>
      <trkpt lat="35.221700" lon="24.792270">
        <ele>2186.000000</ele>
        <time>2002-09-21T08:06:31Z</time>
      </trkpt>
      <trkpt lat="35.221920" lon="24.791960">
        <ele>2187.000000</ele>
        <time>2002-09-21T08:07:03Z</time>
      </trkpt>
      <trkpt lat="35.222030" lon="24.791630">
        <ele>2192.000000</ele>
        <time>2002-09-21T08:07:44Z</time>
      </trkpt>
      <trkpt lat="35.222150" lon="24.791350">
        <ele>2198.000000</ele>
        <time>2002-09-21T08:08:28Z</time>
      </trkpt>
      <trkpt lat="35.222270" lon="24.791100">
        <ele>2204.000000</ele>
        <time>2002-09-21T08:09:13Z</time>
      </trkpt>
      <trkpt lat="35.222430" lon="24.790870">
        <ele>2209.000000</ele>
        <time>2002-09-21T08:09:54Z</time>
      </trkpt>
      <trkpt lat="35.222630" lon="24.790600">
        <ele>2215.000000</ele>
        <time>2002-09-21T08:10:49Z</time>
      </trkpt>
      <trkpt lat="35.222800" lon="24.790370">
        <ele>2223.000000</ele>
        <time>2002-09-21T08:11:42Z</time>
      </trkpt>
      <trkpt lat="35.222970" lon="24.790180">
        <ele>2227.000000</ele>
        <time>2002-09-21T08:12:26Z</time>
      </trkpt>
      <trkpt lat="35.223180" lon="24.789950">
        <ele>2238.000000</ele>
        <time>2002-09-21T08:13:22Z</time>
      </trkpt>
      <trkpt lat="35.223370" lon="24.789800">
        <ele>2240.000000</ele>
        <time>2002-09-21T08:13:54Z</time>
      </trkpt>
      <trkpt lat="35.223230" lon="24.789430">
        <ele>2238.000000</ele>
        <time>2002-09-21T08:15:09Z</time>
      </trkpt>
      <trkpt lat="35.223200" lon="24.789130">
        <ele>2240.000000</ele>
        <time>2002-09-21T08:15:34Z</time>
      </trkpt>
      <trkpt lat="35.223180" lon="24.788740">
        <ele>2247.000000</ele>
        <time>2002-09-21T08:16:25Z</time>
      </trkpt>
      <trkpt lat="35.223180" lon="24.788300">
        <ele>2249.000000</ele>
        <time>2002-09-21T08:16:59Z</time>
      </trkpt>
      <trkpt lat="35.223230" lon="24.787970">
        <ele>2250.000000</ele>
        <time>2002-09-21T08:17:27Z</time>
      </trkpt>
      <trkpt lat="35.223320" lon="24.787650">
        <ele>2251.000000</ele>
        <time>2002-09-21T08:17:55Z</time>
      </trkpt>
      <trkpt lat="35.223450" lon="24.787350">
        <ele>2254.000000</ele>
        <time>2002-09-21T08:18:29Z</time>
      </trkpt>
      <trkpt lat="35.223530" lon="24.787030">
        <ele>2259.000000</ele>
        <time>2002-09-21T08:19:03Z</time>
      </trkpt>
      <trkpt lat="35.223530" lon="24.786650">
        <ele>2267.000000</ele>
        <time>2002-09-21T08:19:52Z</time>
      </trkpt>
      <trkpt lat="35.223500" lon="24.786320">
        <ele>2273.000000</ele>
        <time>2002-09-21T08:20:50Z</time>
      </trkpt>
      <trkpt lat="35.223470" lon="24.785980">
        <ele>2282.000000</ele>
        <time>2002-09-21T08:21:48Z</time>
      </trkpt>
      <trkpt lat="35.223450" lon="24.785670">
        <ele>2289.000000</ele>
        <time>2002-09-21T08:22:35Z</time>
      </trkpt>
      <trkpt lat="35.223520" lon="24.785380">
        <ele>2295.000000</ele>
        <time>2002-09-21T08:23:12Z</time>
      </trkpt>
      <trkpt lat="35.223550" lon="24.784980">
        <ele>2299.000000</ele>
        <time>2002-09-21T08:23:56Z</time>
      </trkpt>
      <trkpt lat="35.223650" lon="24.784650">
        <ele>2300.000000</ele>
        <time>2002-09-21T08:24:25Z</time>
      </trkpt>
      <trkpt lat="35.223680" lon="24.784370">
        <ele>2304.000000</ele>
        <time>2002-09-21T08:25:02Z</time>
      </trkpt>
      <trkpt lat="35.223720" lon="24.784020">
        <ele>2307.000000</ele>
        <time>2002-09-21T08:25:34Z</time>
      </trkpt>
      <trkpt lat="35.223630" lon="24.783720">
        <ele>2311.000000</ele>
        <time>2002-09-21T08:26:05Z</time>
      </trkpt>
      <trkpt lat="35.223620" lon="24.783400">
        <ele>2309.000000</ele>
        <time>2002-09-21T08:26:35Z</time>
      </trkpt>
      <trkpt lat="35.223650" lon="24.782980">
        <ele>2310.000000</ele>
        <time>2002-09-21T08:27:11Z</time>
      </trkpt>
      <trkpt lat="35.223630" lon="24.782650">
        <ele>2311.000000</ele>
        <time>2002-09-21T08:27:38Z</time>
      </trkpt>
      <trkpt lat="35.223610" lon="24.782270">
        <ele>2315.000000</ele>
        <time>2002-09-21T08:28:13Z</time>
      </trkpt>
      <trkpt lat="35.223580" lon="24.781980">
        <ele>2316.000000</ele>
        <time>2002-09-21T08:28:40Z</time>
      </trkpt>
      <trkpt lat="35.223580" lon="24.781570">
        <ele>2319.000000</ele>
        <time>2002-09-21T08:29:12Z</time>
      </trkpt>
      <trkpt lat="35.223570" lon="24.781230">
        <ele>2318.000000</ele>
        <time>2002-09-21T08:29:52Z</time>
      </trkpt>
      <trkpt lat="35.223650" lon="24.780800">
        <ele>2321.000000</ele>
        <time>2002-09-21T08:30:25Z</time>
      </trkpt>
      <trkpt lat="35.223720" lon="24.780520">
        <ele>2322.000000</ele>
        <time>2002-09-21T08:30:48Z</time>
      </trkpt>
      <trkpt lat="35.223850" lon="24.780120">
        <ele>2325.000000</ele>
        <time>2002-09-21T08:31:26Z</time>
      </trkpt>
      <trkpt lat="35.223970" lon="24.779800">
        <ele>2331.000000</ele>
        <time>2002-09-21T08:32:07Z</time>
      </trkpt>
      <trkpt lat="35.224080" lon="24.779430">
        <ele>2338.000000</ele>
        <time>2002-09-21T08:32:53Z</time>
      </trkpt>
      <trkpt lat="35.224200" lon="24.779070">
        <ele>2345.000000</ele>
        <time>2002-09-21T08:33:39Z</time>
      </trkpt>
      <trkpt lat="35.224350" lon="24.778800">
        <ele>2348.000000</ele>
        <time>2002-09-21T08:34:16Z</time>
      </trkpt>
      <trkpt lat="35.224420" lon="24.778530">
        <ele>2352.000000</ele>
        <time>2002-09-21T08:34:47Z</time>
      </trkpt>
      <trkpt lat="35.224450" lon="24.778220">
        <ele>2358.000000</ele>
        <time>2002-09-21T08:35:27Z</time>
      </trkpt>
      <trkpt lat="35.224500" lon="24.777920">
        <ele>2365.000000</ele>
        <time>2002-09-21T08:36:09Z</time>
      </trkpt>
      <trkpt lat="35.224570" lon="24.777650">
        <ele>2369.000000</ele>
        <time>2002-09-21T08:36:41Z</time>
      </trkpt>
      <trkpt lat="35.224720" lon="24.777330">
        <ele>2372.000000</ele>
        <time>2002-09-21T08:37:15Z</time>
      </trkpt>
      <trkpt lat="35.224750" lon="24.776950">
        <ele>2377.000000</ele>
        <time>2002-09-21T08:38:00Z</time>
      </trkpt>
      <trkpt lat="35.224750" lon="24.776600">
        <ele>2383.000000</ele>
        <time>2002-09-21T08:38:44Z</time>
      </trkpt>
      <trkpt lat="35.224720" lon="24.776250">
        <ele>2384.000000</ele>
        <time>2002-09-21T08:39:29Z</time>
      </trkpt>
      <trkpt lat="35.224660" lon="24.775920">
        <ele>2388.000000</ele>
        <time>2002-09-21T08:40:03Z</time>
      </trkpt>
      <trkpt lat="35.224630" lon="24.775530">
        <ele>2395.000000</ele>
        <time>2002-09-21T08:40:30Z</time>
      </trkpt>
      <trkpt lat="35.224580" lon="24.775240">
        <ele>2396.000000</ele>
        <time>2002-09-21T08:40:43Z</time>
      </trkpt>
      <trkpt lat="35.224560" lon="24.774790">
        <ele>2396.000000</ele>
        <time>2002-09-21T08:40:46Z</time>
      </trkpt>
      <trkpt lat="35.224620" lon="24.774510">
        <ele>2395.000000</ele>
        <time>2002-09-21T08:40:53Z</time>
      </trkpt>
      <trkpt lat="35.224700" lon="24.774250">
        <ele>2395.000000</ele>
        <time>2002-09-21T08:41:01Z</time>
      </trkpt>
      <trkpt lat="35.224850" lon="24.773930">
        <ele>2395.000000</ele>
        <time>2002-09-21T08:41:16Z</time>
      </trkpt>
      <trkpt lat="35.225010" lon="24.773700">
        <ele>2397.000000</ele>
        <time>2002-09-21T08:42:15Z</time>
      </trkpt>
      <trkpt lat="35.225230" lon="24.773490">
        <ele>2399.000000</ele>
        <time>2002-09-21T08:43:08Z</time>
      </trkpt>
      <trkpt lat="35.225430" lon="24.773250">
        <ele>2405.000000</ele>
        <time>2002-09-21T08:43:54Z</time>
      </trkpt>
      <trkpt lat="35.225620" lon="24.772940">
        <ele>2412.000000</ele>
        <time>2002-09-21T08:44:41Z</time>
      </trkpt>
      <trkpt lat="35.225750" lon="24.772680">
        <ele>2418.000000</ele>
        <time>2002-09-21T08:45:42Z</time>
      </trkpt>
      <trkpt lat="35.225890" lon="24.772420">
        <ele>2427.000000</ele>
        <time>2002-09-21T08:46:56Z</time>
      </trkpt>
      <trkpt lat="35.225990" lon="24.772130">
        <ele>2435.000000</ele>
        <time>2002-09-21T08:47:42Z</time>
      </trkpt>
      <trkpt lat="35.226120" lon="24.771860">
        <ele>2441.000000</ele>
        <time>2002-09-21T08:48:15Z</time>
      </trkpt>
      <trkpt lat="35.226260" lon="24.771540">
        <ele>2446.000000</ele>
        <time>2002-09-21T08:48:50Z</time>
      </trkpt>
      <trkpt lat="35.226410" lon="24.771280">
        <ele>2450.000000</ele>
        <time>2002-09-21T08:49:23Z</time>
      </trkpt>
      <trkpt lat="35.226430" lon="24.771080">
        <ele>2450.000000</ele>
        <time>2002-09-21T08:49:25Z</time>
      </trkpt>
    </trkseg>
  </trk>

</gpx>
